createdAt,value
2019-03-06T00:02:07.155Z,100796.98
2019-03-06T00:04:34.379Z,100796.04
2019-03-06T00:07:01.464Z,100792.48
2019-03-06T00:09:28.593Z,100786.66
2019-03-06T00:11:55.694Z,100790.05
2019-03-06T00:14:22.870Z,100779.89
2019-03-06T00:16:49.936Z,100784.59
2019-03-06T00:19:17.026Z,100775.32
2019-03-06T00:21:44.118Z,100775.27
2019-03-06T00:24:11.168Z,100773.89
2019-03-06T00:26:38.387Z,100772.06
2019-03-06T00:29:07.617Z,100769.39
2019-03-06T00:31:34.967Z,100764.52
2019-03-06T00:34:02.025Z,100757.09
2019-03-06T00:36:30.501Z,100753.64
2019-03-06T00:39:50.138Z,100750.55
2019-03-06T00:42:17.231Z,100748.77
2019-03-06T00:44:44.274Z,100744.02
2019-03-06T00:47:11.348Z,100735.34
2019-03-06T00:49:38.653Z,100734.04
2019-03-06T00:52:05.716Z,100736.71
2019-03-06T00:54:32.816Z,100730.66
2019-03-06T00:56:59.919Z,100732.84
2019-03-06T00:59:26.978Z,100730.23
2019-03-06T01:01:54.023Z,100720.67
2019-03-06T01:04:21.113Z,100728.56
2019-03-06T01:06:48.362Z,100730.30
2019-03-06T01:09:15.547Z,100729.88
2019-03-06T01:11:47.630Z,100727.27
2019-03-06T01:14:14.682Z,100726.42
2019-03-06T01:16:42.040Z,100725.95
2019-03-06T01:19:09.233Z,100722.09
2019-03-06T01:21:36.278Z,100709.02
2019-03-06T01:24:03.542Z,100702.91
2019-03-06T01:26:30.619Z,100700.77
2019-03-06T01:28:57.670Z,100695.53
2019-03-06T01:31:24.731Z,100694.17
2019-03-06T01:34:14.240Z,100688.41
2019-03-06T01:37:06.767Z,100689.72
2019-03-06T01:40:08.768Z,100681.41
2019-03-06T01:42:46.743Z,100680.98
2019-03-06T01:45:13.879Z,100677.54
2019-03-06T01:47:40.882Z,100674.03
2019-03-06T01:50:11.042Z,100671.11
2019-03-06T01:52:38.113Z,100666.78
2019-03-06T01:55:05.944Z,100664.16
2019-03-06T01:57:32.992Z,100655.02
2019-03-06T02:00:00.302Z,100657.63
2019-03-06T02:02:27.546Z,100653.81
2019-03-06T02:04:54.599Z,100645.98
2019-03-06T02:07:22.091Z,100648.59
2019-03-06T02:09:49.195Z,100637.35
2019-03-06T02:12:16.481Z,100644.67
2019-03-06T02:14:43.815Z,100632.84
2019-03-06T02:17:10.900Z,100624.06
2019-03-06T02:19:37.958Z,100630.07
2019-03-06T02:22:05.584Z,100619.51
2019-03-06T02:24:32.634Z,100620.34
2019-03-06T02:26:59.692Z,100617.73
2019-03-06T02:29:26.757Z,100616.78
2019-03-06T02:31:53.815Z,100603.61
2019-03-06T02:34:20.883Z,100606.55
2019-03-06T02:36:48.252Z,100602.05
2019-03-06T02:39:15.368Z,100596.60
2019-03-06T02:41:42.439Z,100593.88
2019-03-06T02:44:09.606Z,100585.92
2019-03-06T02:46:36.718Z,100585.45
2019-03-06T02:49:03.788Z,100581.48
2019-03-06T02:51:31.225Z,100570.87
2019-03-06T02:53:58.336Z,100567.00
2019-03-06T02:56:25.538Z,100563.55
2019-03-06T02:58:58.251Z,100555.72
2019-03-06T03:01:39.319Z,100552.22
2019-03-06T03:04:14.650Z,100551.22
2019-03-06T03:06:45.100Z,100549.80
2019-03-06T03:09:18.900Z,100547.61
2019-03-06T03:11:46.061Z,100546.66
2019-03-06T03:14:13.143Z,100541.33
2019-03-06T03:16:42.743Z,100540.86
2019-03-06T03:19:09.813Z,100543.00
2019-03-06T03:21:36.858Z,100541.27
2019-03-06T03:24:03.942Z,100534.80
2019-03-06T03:26:31.027Z,100533.49
2019-03-06T03:28:58.118Z,100529.63
2019-03-06T03:31:25.159Z,100526.19
2019-03-06T03:33:52.290Z,100526.19
2019-03-06T03:36:19.353Z,100524.87
2019-03-06T03:38:46.468Z,100523.05
2019-03-06T03:41:13.572Z,100517.82
2019-03-06T03:43:40.628Z,100516.16
2019-03-06T03:46:07.740Z,100510.98
2019-03-06T03:48:34.840Z,100507.13
2019-03-06T03:51:01.913Z,100501.53
2019-03-06T03:53:28.958Z,100498.19
2019-03-06T03:55:56.049Z,100504.36
2019-03-06T03:58:23.118Z,100494.85
2019-03-06T04:00:50.175Z,100499.30
2019-03-06T04:03:17.341Z,100488.84
2019-03-06T04:05:44.441Z,100490.56
2019-03-06T04:08:11.494Z,100493.66
2019-03-06T04:10:38.604Z,100497.67
2019-03-06T04:13:05.887Z,100496.53
2019-03-06T04:15:33.065Z,100501.39
2019-03-06T04:18:00.155Z,100494.48
2019-03-06T04:20:27.260Z,100497.10
2019-03-06T04:22:54.315Z,100496.79
2019-03-06T04:25:21.402Z,100492.48
2019-03-06T04:27:48.649Z,100487.78
2019-03-06T04:30:16.137Z,100476.59
2019-03-06T04:32:43.215Z,100468.38
2019-03-06T04:35:10.277Z,100466.71
2019-03-06T04:37:37.461Z,100466.19
2019-03-06T04:40:05.112Z,100463.06
2019-03-06T04:42:32.375Z,100451.77
2019-03-06T04:44:59.530Z,100447.94
2019-03-06T04:47:26.585Z,100437.48
2019-03-06T04:49:53.666Z,100431.01
2019-03-06T04:52:20.711Z,100424.98
2019-03-06T04:54:47.866Z,100422.47
2019-03-06T04:57:15.049Z,100412.02
2019-03-06T04:59:42.101Z,100408.98
2019-03-06T05:02:09.147Z,100411.75
2019-03-06T05:04:36.221Z,100404.38
2019-03-06T05:07:03.326Z,100402.59
2019-03-06T05:09:30.485Z,100402.27
2019-03-06T05:11:57.568Z,100400.45
2019-03-06T05:14:24.622Z,100394.02
2019-03-06T05:17:10.273Z,100391.02
2019-03-06T05:19:37.329Z,100395.55
2019-03-06T05:22:04.704Z,100391.83
2019-03-06T05:24:31.803Z,100380.52
2019-03-06T05:26:58.844Z,100363.11
2019-03-06T05:29:25.916Z,100361.05
2019-03-06T05:32:33.429Z,100351.56
2019-03-06T05:35:24.235Z,100343.39
2019-03-06T05:38:14.657Z,100332.17
2019-03-06T05:40:41.731Z,100329.27
2019-03-06T05:43:08.837Z,100325.91
2019-03-06T05:45:35.966Z,100316.08
2019-03-06T05:48:03.810Z,100313.97
2019-03-06T05:50:30.870Z,100304.05
2019-03-06T05:52:57.961Z,100298.02
2019-03-06T05:55:25.077Z,100289.33
2019-03-06T05:57:52.130Z,100287.22
2019-03-06T06:00:21.090Z,100287.67
2019-03-06T06:02:48.140Z,100288.14
2019-03-06T06:05:15.276Z,100276.11
2019-03-06T06:07:42.530Z,100274.50
2019-03-06T06:10:10.410Z,100275.47
2019-03-06T06:12:37.485Z,100272.42
2019-03-06T06:15:06.554Z,100268.54
2019-03-06T06:17:33.656Z,100258.11
2019-03-06T06:20:00.709Z,100259.45
2019-03-06T06:22:44.980Z,100255.57
2019-03-06T06:25:12.333Z,100255.61
2019-03-06T06:27:40.528Z,100250.87
2019-03-06T06:30:08.409Z,100244.83
2019-03-06T06:32:35.468Z,100255.34
2019-03-06T06:35:02.770Z,100247.53
2019-03-06T06:37:29.831Z,100240.59
2019-03-06T06:39:56.925Z,100238.83
2019-03-06T06:42:24.088Z,100228.39
2019-03-06T06:44:51.133Z,100235.86
2019-03-06T06:47:18.209Z,100220.16
2019-03-06T06:49:45.325Z,100204.86
2019-03-06T06:52:53.983Z,100207.95
2019-03-06T06:55:27.473Z,100197.08
2019-03-06T06:58:33.673Z,100183.56
2019-03-06T07:01:38.618Z,100180.06
2019-03-06T07:05:31.246Z,100180.98
2019-03-06T07:08:29.824Z,100170.97
2019-03-06T07:11:22.377Z,100171.92
2019-03-06T07:13:59.070Z,100166.30
2019-03-06T07:16:48.531Z,100167.72
2019-03-06T07:19:35.381Z,100165.63
2019-03-06T07:22:20.963Z,100174.02
2019-03-06T07:25:10.763Z,100168.00
2019-03-06T07:27:49.486Z,100167.22
2019-03-06T07:30:31.250Z,100150.26
2019-03-06T07:33:27.716Z,100156.42
2019-03-06T07:36:19.014Z,100153.47
2019-03-06T07:38:47.067Z,100148.34
2019-03-06T07:41:32.173Z,100138.80
2019-03-06T07:44:17.475Z,100140.60
2019-03-06T07:47:02.853Z,100138.51
2019-03-06T07:49:49.490Z,100131.30
2019-03-06T07:52:34.695Z,100128.34
2019-03-06T07:55:39.692Z,100120.20
2019-03-06T07:58:43.531Z,100132.98
2019-03-06T08:01:16.997Z,100136.23
2019-03-06T08:03:49.793Z,100125.93
2019-03-06T08:06:16.990Z,100124.34
2019-03-06T08:08:44.039Z,100130.21
2019-03-06T08:11:19.881Z,100129.49
2019-03-06T08:14:02.176Z,100133.97
2019-03-06T08:16:36.668Z,100124.78
2019-03-06T08:19:38.565Z,100130.48
2019-03-06T08:22:31.377Z,100133.11
2019-03-06T08:25:16.590Z,100122.56
2019-03-06T08:27:43.897Z,100129.58
2019-03-06T08:30:11.556Z,100122.61
2019-03-06T08:32:38.957Z,100118.82
2019-03-06T08:35:07.683Z,100120.64
2019-03-06T08:37:34.733Z,100112.80
2019-03-06T08:40:01.813Z,100105.83
2019-03-06T08:42:29.015Z,100099.27
2019-03-06T08:44:56.325Z,100095.35
2019-03-06T08:47:41.240Z,100082.71
2019-03-06T08:50:20.403Z,100071.37
2019-03-06T08:53:05.455Z,100067.94
2019-03-06T08:55:41.088Z,100058.42
2019-03-06T08:58:36.729Z,100047.58
2019-03-06T09:01:45.098Z,100034.11
2019-03-06T09:04:31.977Z,100024.13
2019-03-06T09:07:17.276Z,100017.23
2019-03-06T09:09:52.506Z,100011.20
2019-03-06T09:12:38.437Z,100010.42
2019-03-06T09:15:14.329Z,100003.97
2019-03-06T09:18:09.341Z,100011.09
2019-03-06T09:24:31.334Z,100001.60
2019-03-06T09:27:19.789Z,100003.09
2019-03-06T09:30:16.012Z,100004.62
2019-03-06T09:32:58.187Z,99980.66
2019-03-06T09:35:43.476Z,99981.20
2019-03-06T09:38:30.140Z,99988.31
2019-03-06T09:41:26.074Z,99983.63
2019-03-06T09:44:24.714Z,99983.72
2019-03-06T09:47:08.697Z,99985.58
2019-03-06T09:49:54.181Z,99980.38
2019-03-06T09:52:53.231Z,99979.98
2019-03-06T09:55:42.717Z,99983.08
2019-03-06T09:58:16.947Z,99973.87
2019-03-06T10:04:17.313Z,99976.48
2019-03-06T10:07:02.688Z,99977.37
2019-03-06T10:09:59.180Z,99970.36
2019-03-06T10:12:47.430Z,99970.80
2019-03-06T10:15:34.398Z,99981.82
2019-03-06T10:18:08.709Z,99974.83
2019-03-06T10:20:35.807Z,99977.52
2019-03-06T10:23:03.125Z,99968.75
2019-03-06T10:25:35.701Z,99966.61
2019-03-06T10:28:06.241Z,99964.92
2019-03-06T10:30:32.226Z,99962.77
2019-03-06T10:32:59.551Z,99952.70
2019-03-06T10:35:26.617Z,99951.42
2019-03-06T10:37:54.010Z,99950.97
2019-03-06T10:40:24.991Z,99942.16
2019-03-06T10:42:52.388Z,99947.41
2019-03-06T10:45:20.592Z,99940.82
2019-03-06T10:47:48.037Z,99939.97
2019-03-06T10:50:26.041Z,99933.40
2019-03-06T10:52:45.737Z,99930.34
2019-03-06T10:55:14.524Z,99926.84
2019-03-06T10:57:41.808Z,99922.89
2019-03-06T11:00:17.347Z,99922.91
2019-03-06T11:02:44.732Z,99917.63
2019-03-06T11:05:25.784Z,99909.72
2019-03-06T11:07:54.734Z,99904.00
2019-03-06T11:10:24.588Z,99898.28
2019-03-06T11:12:54.221Z,99893.00
2019-03-06T11:15:21.654Z,99888.59
2019-03-06T11:17:49.238Z,99889.03
2019-03-06T11:20:36.694Z,99879.79
2019-03-06T11:23:06.351Z,99874.89
2019-03-06T11:25:34.891Z,99861.63
2019-03-06T11:28:02.426Z,99854.50
2019-03-06T11:30:37.505Z,99848.30
2019-03-06T11:33:06.158Z,99842.09
2019-03-06T11:35:34.191Z,99836.36
2019-03-06T11:38:01.545Z,99831.96
2019-03-06T11:40:29.193Z,99824.02
2019-03-06T11:42:56.262Z,99813.41
2019-03-06T11:45:23.447Z,99824.39
2019-03-06T11:47:50.524Z,99816.44
2019-03-06T11:50:40.751Z,99808.05
2019-03-06T11:53:04.931Z,99807.12
2019-03-06T11:55:32.002Z,99812.80
2019-03-06T11:58:00.086Z,99816.69
2019-03-06T12:00:32.559Z,99818.49
2019-03-06T12:02:59.680Z,99820.31
2019-03-06T12:05:58.700Z,99823.03
2019-03-06T12:08:25.844Z,99812.57
2019-03-06T12:10:53.210Z,99805.63
2019-03-06T12:13:20.482Z,99812.73
2019-03-06T12:15:48.805Z,99803.08
2019-03-06T12:18:16.915Z,99790.77
2019-03-06T12:20:44.267Z,99779.76
2019-03-06T12:23:11.429Z,99770.50
2019-03-06T12:25:39.668Z,99769.20
2019-03-06T12:28:09.076Z,99751.61
2019-03-06T12:30:38.333Z,99748.53
2019-03-06T12:33:05.444Z,99756.00
2019-03-06T12:35:32.832Z,99756.45
2019-03-06T12:38:00.022Z,99751.59
2019-03-06T12:40:28.851Z,99742.37
2019-03-06T12:42:55.963Z,99742.81
2019-03-06T12:45:23.041Z,99737.52
2019-03-06T12:47:55.463Z,99737.94
2019-03-06T12:50:21.195Z,99734.42
2019-03-06T12:52:48.246Z,99726.95
2019-03-06T12:55:15.461Z,99723.48
2019-03-06T12:57:42.646Z,99725.28
2019-03-06T13:00:17.344Z,99723.56
2019-03-06T13:02:44.840Z,99714.75
2019-03-06T13:05:30.449Z,99713.00
2019-03-06T13:07:57.545Z,99701.99
2019-03-06T13:10:24.643Z,99700.22
2019-03-06T13:12:51.940Z,99666.30
2019-03-06T13:15:22.171Z,99675.97
2019-03-06T13:17:52.769Z,99664.95
2019-03-06T13:20:20.464Z,99660.56
2019-03-06T13:22:47.701Z,99670.76
2019-03-06T13:25:17.475Z,99672.52
2019-03-06T13:27:45.672Z,99669.02
2019-03-06T13:30:15.817Z,99664.20
2019-03-06T13:33:02.733Z,99669.50
2019-03-06T13:35:30.366Z,99679.20
2019-03-06T13:37:57.405Z,99684.06
2019-03-06T13:40:24.554Z,99681.88
2019-03-06T13:42:51.629Z,99680.14
2019-03-06T13:45:19.203Z,99666.95
2019-03-06T13:47:46.350Z,99667.38
2019-03-06T13:50:13.864Z,99659.02
2019-03-06T13:52:41.128Z,99654.17
2019-03-06T13:55:08.594Z,99658.55
2019-03-06T13:57:35.679Z,99662.52
2019-03-06T14:00:03.816Z,99658.98
2019-03-06T14:02:31.148Z,99659.00
2019-03-06T14:04:58.205Z,99654.20
2019-03-06T14:07:25.260Z,99648.52
2019-03-06T14:09:52.350Z,99659.52
2019-03-06T14:12:19.434Z,99654.67
2019-03-06T14:14:46.705Z,99658.63
2019-03-06T14:17:13.841Z,99671.42
2019-03-06T14:19:41.200Z,99670.57
2019-03-06T14:22:23.643Z,99662.26
2019-03-06T14:24:50.738Z,99655.69
2019-03-06T14:27:17.935Z,99655.27
2019-03-06T14:29:45.225Z,99645.55
2019-03-06T14:32:14.901Z,99644.66
2019-03-06T14:34:42.056Z,99645.98
2019-03-06T14:37:10.078Z,99642.03
2019-03-06T14:39:37.198Z,99642.03
2019-03-06T14:42:48.381Z,99637.20
2019-03-06T14:45:17.150Z,99635.88
2019-03-06T14:47:46.326Z,99635.45
2019-03-06T14:50:13.985Z,99638.95
2019-03-06T14:53:00.422Z,99634.56
2019-03-06T14:55:27.631Z,99634.56
2019-03-06T14:57:54.731Z,99627.55
2019-03-06T15:00:21.887Z,99612.62
2019-03-06T15:02:48.993Z,99608.23
2019-03-06T15:05:17.079Z,99606.03
2019-03-06T15:07:44.254Z,99603.40
2019-03-06T15:10:12.601Z,99601.20
2019-03-06T15:12:39.805Z,99598.13
2019-03-06T15:15:09.810Z,99597.70
2019-03-06T15:17:37.093Z,99600.77
2019-03-06T15:20:04.975Z,99594.19
2019-03-06T15:22:38.297Z,99596.37
2019-03-06T15:25:01.143Z,99596.37
2019-03-06T15:27:28.296Z,99584.09
2019-03-06T15:29:55.455Z,99577.95
2019-03-06T15:32:22.536Z,99572.23
2019-03-06T15:34:50.933Z,99565.66
2019-03-06T15:37:18.132Z,99558.63
2019-03-06T15:39:48.881Z,99555.56
2019-03-06T15:42:23.120Z,99550.28
2019-03-06T15:44:50.465Z,99554.67
2019-03-06T15:47:17.588Z,99562.58
2019-03-06T15:49:44.693Z,99562.58
2019-03-06T15:52:12.099Z,99563.02
2019-03-06T15:54:39.267Z,99557.75
2019-03-06T15:57:06.462Z,99559.94
2019-03-06T15:59:33.714Z,99553.35
2019-03-06T16:02:00.826Z,99548.95
2019-03-06T16:04:28.010Z,99551.59
2019-03-06T16:06:55.240Z,99556.43
2019-03-06T16:09:22.863Z,99552.48
2019-03-06T16:11:51.893Z,99548.53
2019-03-06T16:14:19.148Z,99549.85
2019-03-06T16:16:46.338Z,99549.42
2019-03-06T16:19:13.455Z,99541.95
2019-03-06T16:21:43.542Z,99535.38
2019-03-06T16:24:10.627Z,99531.00
2019-03-06T16:26:37.740Z,99522.22
2019-03-06T16:29:05.073Z,99530.12
2019-03-06T16:31:32.303Z,99531.87
2019-03-06T16:33:59.510Z,99529.67
2019-03-06T16:36:26.580Z,99530.55
2019-03-06T16:38:53.640Z,99525.72
2019-03-06T16:41:20.822Z,99525.72
2019-03-06T16:43:47.963Z,99525.27
2019-03-06T16:46:17.107Z,99527.45
2019-03-06T16:48:44.151Z,99525.69
2019-03-06T16:51:11.370Z,99528.75
2019-03-06T16:53:38.615Z,99531.83
2019-03-06T16:56:12.406Z,99526.14
2019-03-06T16:58:39.665Z,99531.84
2019-03-06T17:01:07.317Z,99525.27
2019-03-06T17:03:34.529Z,99520.45
2019-03-06T17:06:02.309Z,99522.20
2019-03-06T17:08:29.496Z,99516.07
2019-03-06T17:11:33.753Z,99514.31
2019-03-06T17:14:00.969Z,99513.44
2019-03-06T17:16:28.152Z,99510.80
2019-03-06T17:18:55.216Z,99512.11
2019-03-06T17:21:22.437Z,99512.11
2019-03-06T17:23:49.607Z,99517.80
2019-03-06T17:26:16.747Z,99514.73
2019-03-06T17:28:43.836Z,99505.52
2019-03-06T17:31:11.117Z,99510.77
2019-03-06T17:33:38.265Z,99512.52
2019-03-06T17:36:05.583Z,99504.19
2019-03-06T17:38:32.681Z,99496.73
2019-03-06T17:40:59.736Z,99498.48
2019-03-06T17:43:27.139Z,99496.28
2019-03-06T17:45:54.234Z,99495.84
2019-03-06T17:48:21.414Z,99490.14
2019-03-06T17:50:49.231Z,99475.25
2019-03-06T17:53:16.333Z,99475.69
2019-03-06T17:55:43.528Z,99473.45
2019-03-06T17:58:10.750Z,99471.70
2019-03-06T18:00:46.478Z,99477.39
2019-03-06T18:03:16.069Z,99473.89
2019-03-06T18:05:43.366Z,99477.88
2019-03-06T18:08:11.530Z,99476.13
2019-03-06T18:10:39.800Z,99480.06
2019-03-06T18:13:07.604Z,99479.59
2019-03-06T18:15:34.728Z,99485.72
2019-03-06T18:18:02.016Z,99483.96
2019-03-06T18:20:29.204Z,99480.88
2019-03-06T18:22:56.295Z,99484.38
2019-03-06T18:25:23.683Z,99472.98
2019-03-06T18:27:50.870Z,99472.09
2019-03-06T18:32:42.779Z,99458.10
2019-03-06T18:35:11.149Z,99462.48
2019-03-06T18:37:38.238Z,99456.34
2019-03-06T18:40:06.764Z,99453.70
2019-03-06T18:42:33.905Z,99453.27
2019-03-06T18:45:01.164Z,99450.65
2019-03-06T18:47:28.293Z,99449.34
2019-03-06T18:49:55.833Z,99444.08
2019-03-06T18:52:22.934Z,99447.16
2019-03-06T18:54:50.179Z,99444.95
2019-03-06T18:57:17.356Z,99440.57
2019-03-06T18:59:44.455Z,99435.76
2019-03-06T19:02:11.579Z,99436.20
2019-03-06T19:04:38.826Z,99445.84
2019-03-06T19:07:06.464Z,99443.21
2019-03-06T19:09:33.599Z,99444.09
2019-03-06T19:12:00.690Z,99437.95
2019-03-06T19:14:29.460Z,99441.46
2019-03-06T19:16:56.693Z,99439.70
2019-03-06T19:19:23.830Z,99429.63
2019-03-06T19:21:50.939Z,99435.37
2019-03-06T19:24:25.733Z,99434.50
2019-03-06T19:26:53.096Z,99435.81
2019-03-06T19:29:20.254Z,99424.81
2019-03-06T19:31:47.417Z,99423.09
2019-03-06T19:34:14.606Z,99427.05
2019-03-06T19:36:42.965Z,99426.61
2019-03-06T19:39:37.424Z,99420.47
2019-03-06T19:42:04.664Z,99423.11
2019-03-06T19:44:31.788Z,99421.80
2019-03-06T19:46:59.101Z,99422.23
2019-03-06T19:49:26.257Z,99417.84
2019-03-06T19:51:53.683Z,99425.73
2019-03-06T19:54:39.034Z,99429.23
2019-03-06T19:57:06.107Z,99429.23
2019-03-06T19:59:33.196Z,99428.80
2019-03-06T20:02:00.384Z,99421.34
2019-03-06T20:04:27.459Z,99421.31
2019-03-06T20:06:54.824Z,99416.05
2019-03-06T20:09:34.684Z,99414.29
2019-03-06T20:12:01.990Z,99419.55
2019-03-06T20:14:30.722Z,99410.34
2019-03-06T20:16:57.837Z,99406.35
2019-03-06T20:19:24.913Z,99405.03
2019-03-06T20:21:52.300Z,99404.59
2019-03-06T20:24:19.708Z,99398.94
2019-03-06T20:26:46.971Z,99393.20
2019-03-06T20:29:14.028Z,99391.45
2019-03-06T20:31:41.224Z,99389.69
2019-03-06T20:34:08.414Z,99386.61
2019-03-06T20:36:35.522Z,99387.48
2019-03-06T20:39:03.983Z,99373.92
2019-03-06T20:41:31.083Z,99383.13
2019-03-06T20:43:58.210Z,99378.75
2019-03-06T20:47:03.489Z,99381.38
2019-03-06T20:49:30.996Z,99376.56
2019-03-06T20:51:59.190Z,99373.48
2019-03-06T20:54:27.455Z,99376.99
2019-03-06T20:56:54.730Z,99379.19
2019-03-06T20:59:21.842Z,99382.69
2019-03-06T21:01:48.948Z,99379.62
2019-03-06T21:04:16.173Z,99370.86
2019-03-06T21:06:43.552Z,99370.43
2019-03-06T21:09:10.683Z,99367.80
2019-03-06T21:11:37.790Z,99369.98
2019-03-06T21:14:05.184Z,99374.80
2019-03-06T21:16:34.045Z,99369.10
2019-03-06T21:19:01.156Z,99362.09
2019-03-06T21:21:28.300Z,99365.60
2019-03-06T21:23:55.491Z,99356.41
2019-03-06T21:26:22.595Z,99361.23
2019-03-06T21:28:49.704Z,99353.78
2019-03-06T21:31:22.957Z,99354.22
2019-03-06T21:33:50.148Z,99349.84
2019-03-06T21:36:17.357Z,99344.59
2019-03-06T21:38:44.545Z,99341.08
2019-03-06T21:41:11.613Z,99342.83
2019-03-06T21:43:38.852Z,99335.39
2019-03-06T21:46:06.023Z,99336.70
2019-03-06T21:48:33.411Z,99334.07
2019-03-06T21:51:00.570Z,99327.50
2019-03-06T21:53:27.689Z,99329.25
2019-03-06T21:55:54.823Z,99329.25
2019-03-06T21:58:21.931Z,99321.38
2019-03-06T22:00:49.147Z,99314.80
2019-03-06T22:03:16.352Z,99310.42
2019-03-06T22:05:43.496Z,99302.09
2019-03-06T22:08:10.637Z,99302.10
2019-03-06T22:10:56.114Z,99299.03
2019-03-06T22:13:23.606Z,99302.58
2019-03-06T22:15:50.764Z,99299.06
2019-03-06T22:18:18.671Z,99297.31
2019-03-06T22:20:47.657Z,99288.09
2019-03-06T22:23:14.712Z,99282.39
2019-03-06T22:25:41.788Z,99285.48
2019-03-06T22:28:12.052Z,99280.67
2019-03-06T22:30:39.153Z,99286.36
2019-03-06T22:33:06.339Z,99281.55
2019-03-06T22:35:33.726Z,99273.66
2019-03-06T22:38:01.197Z,99262.70
2019-03-06T22:40:28.454Z,99257.88
2019-03-06T22:42:55.552Z,99261.39
2019-03-06T22:45:22.746Z,99257.45
2019-03-06T22:47:49.931Z,99250.44
2019-03-06T22:50:17.290Z,99257.88
2019-03-06T22:52:45.155Z,99249.58
2019-03-06T22:55:13.863Z,99250.01
2019-03-06T22:57:40.931Z,99236.86
2019-03-06T23:00:55.043Z,99232.47
2019-03-06T23:03:22.602Z,99234.66
2019-03-06T23:05:54.131Z,99227.64
2019-03-06T23:08:21.238Z,99222.39
2019-03-06T23:10:48.327Z,99220.20
2019-03-06T23:13:15.500Z,99216.69
2019-03-06T23:15:42.900Z,99211.44
2019-03-06T23:18:10.594Z,99202.22
2019-03-06T23:20:44.143Z,99201.35
2019-03-06T23:23:12.650Z,99200.05
2019-03-06T23:25:39.732Z,99187.33
2019-03-06T23:28:06.919Z,99190.84
2019-03-06T23:30:35.392Z,99183.84
2019-03-06T23:33:02.524Z,99174.20
2019-03-06T23:35:29.721Z,99173.30
2019-03-06T23:37:56.826Z,99164.09
2019-03-06T23:40:23.892Z,99164.97
2019-03-06T23:42:50.996Z,99165.81
2019-03-06T23:45:18.085Z,99167.53
2019-03-06T23:47:45.284Z,99164.88
2019-03-06T23:50:12.688Z,99158.31
2019-03-06T23:53:17.875Z,99156.12
2019-03-06T23:55:45.015Z,99151.31
2019-03-06T23:58:12.082Z,99148.70
